Portada
METAR-TAF:

METAR-TAF

Aeroports :

Aurangabad, Índia

latitud: 19-51-46N, longitud: 75-23-53E, altitud: 582 m

Observació

L'informe es va fer fa 42 minuts, a les 01:00 UTC
Vent 2 kt del Nord-Oest
Temperatura 18°C
Humitat 49%
Pressió 1015 hPa
Visibilitat: 4000 m
calitja

METAR: VAAU 060100Z 32002KT 4000 HZ NSC 18/07 Q1015 NOSIG

Hora: 07:12 (01:42 UTC)

Pronòstic

L'informe es va fer fa 2 hores i 42 minuts, a les 23:00 UTC
Pronòstic vàlid del 06 a les 00 UTC al 06 a les 09 UTC
Vent kt del Nord
Visibilitat: 3000 m
calitja
Evolucionant progressivament
l' 06 a les 03 UTC al 06 a les 05 UTC
Vent 3 kt del Nord-Est
Evolucionant progressivament
l' 06 a les 06 UTC al 06 a les 08 UTC
Vent 5 kt del Est/Sud-Est
Visibilitat: 4000 m
calitja

TAF: VAAU 052300Z 0600/0609 00000KT 3000 HZ NSC BECMG 0603/0605 05003KT BECMG 0606/0608 11005KT 4000 HZ

Observacions i pronòstics meteorològics de més de 4000 aeroports (METAR i TAF).

Les estacions disponibles són els punts grocs i vermells al mapa.

Posi el ratolí al punt desitjat per veure el nom de l'estació.

Feu clic per veure les observacions i els pronòstics meteorològics.

Per canviar el mapa: feu clic els botons verds amb una creu de color negre per apropar; al botó verd amb un guió per allunyar la imatge; o en les fletxes verdes per a mapes adjacents.


METAR-TAF: